Flight Track Log - Related Links

Times and Time Zones

All times are in EST time to prevent confusion due to time zone crossing. See the SWA4281 flight status page for this flight to view local times or setup timezone preferences in your user account.


Time Position Orientation Groundspeed Altitude Reporting Facility
EST Latitude Longitude Course Direction KTS MPH feet Rate Location/Type
Wed 02:32:19 PM 34.1669 -118.4122 233° Southwest 231 266 4,800  Level Los Angeles Center
Wed 02:33:21 PM 34.2308 -118.4344 344° North 257 296 8,700 3,726 Climbing Los Angeles Center
Wed 02:34:23 PM 34.3028 -118.4081 17° North 278 320 12,500 3,581 Climbing Los Angeles Center
Wed 02:35:25 PM 34.3794 -118.3728 21° North 295 339 16,100 3,290 Climbing Los Angeles Center
Wed 02:36:27 PM 34.4583 -118.3308 24° Northeast 307 353 19,300 3,024 Climbing Los Angeles Center
Wed 02:37:30 PM 34.5036 -118.2008 67° East 352 405 22,400 1,824 Climbing Los Angeles Center
Wed 02:38:32 PM 34.5336 -118.0947 71° East 368 423 23,100 1,113 Climbing Los Angeles Center
Wed 02:39:34 PM 34.5711 -117.9700 70° East 391 450 24,700 1,887 Climbing Los Angeles Center
Wed 02:40:36 PM 34.6150 -117.8114 71° East 411 473 27,000 1,113 Climbing Los Angeles Center
Wed 02:41:38 PM 34.6517 -117.6817 71° East 411 473 27,000  Level Los Angeles Center
Wed 02:42:40 PM 34.6889 -117.5525 71° East 409 471 27,000  Level Los Angeles Center
Wed 02:43:43 PM 34.7264 -117.4225 71° East 411 473 27,000  Level Los Angeles Center
Wed 02:45:47 PM 34.8217 -117.1447 77° East 408 470 27,000  Level Los Angeles Center
Wed 02:46:49 PM 34.8692 -117.0189 65° Northeast 411 473 27,000  Level Los Angeles Center
Wed 02:47:51 PM 34.9167 -116.8917 65° Northeast 414 476 27,000  Level Los Angeles Center
Wed 02:48:53 PM 34.9650 -116.7664 65° Northeast 412 474 27,000  Level Los Angeles Center
Wed 02:49:55 PM 35.0122 -116.6403 65° Northeast 413 475 27,000 -768 Level Los Angeles Center
Wed 02:50:58 PM 35.0683 -116.4897 65° Northeast 408 470 25,400 -1,440 Descending Los Angeles Center
Wed 02:52:00 PM 35.1228 -116.3750 60° Northeast 403 464 24,000 -677 Descending Los Angeles Center
Wed 02:53:02 PM 35.1956 -116.2814 46° Northeast 386 444 24,000 -194 Level Los Angeles Center
Wed 02:54:04 PM 35.2692 -116.1906 45° Northeast 381 438 23,600 -1,113 Descending Los Angeles Center
Wed 02:55:06 PM 35.3406 -116.0992 46° Northeast 375 432 21,700 -1,984 Descending Los Angeles Center
Wed 02:56:08 PM 35.4256 -115.9933 45° Northeast 365 420 19,500 -1,872 Descending Los Angeles Center
Wed 02:57:11 PM 35.4931 -115.9061 46° Northeast 358 412 17,800 -1,776 Descending Los Angeles Center
Wed 02:58:13 PM 35.5661 -115.8150 45° Northeast 349 402 15,800 -1,971 Descending Los Angeles Center
Wed 02:58:21 PM 35.5769 -115.8069 31° Northeast 346 398 15,500 -1,913 Descending Los Angeles Center
Wed 02:59:22 PM 35.6414 -115.7256 46° Northeast 336 387 13,600 -1,293 Descending Los Angeles Center
Wed 03:00:17 PM 35.6917 -115.6553 49° Northeast 325 374 13,000 -590 Descending Los Angeles Center
Wed 03:00:23 PM 35.7039 -115.6447 35° Northeast 304 350 13,000  Level Los Angeles Center
Wed 03:01:20 PM 35.7564 -115.5783 46° Northeast 286 329 13,000  Level Los Angeles Center
Wed 03:01:24 PM 35.7611 -115.5789 355° North 267 307 13,000  Level Los Angeles Center
Wed 03:02:22 PM 35.8250 -115.5703 North 250 288 13,000  Level Los Angeles Center
Wed 03:02:25 PM 35.8308 -115.5722 345° North 251 289 13,000  Level Los Angeles Center
Wed 03:03:24 PM 35.8944 -115.5664 North 251 289 13,000  Level Los Angeles Center
Wed 03:03:25 PM 35.9011 -115.5681 349° North 250 288 13,000 -968 Level Los Angeles Center
Wed 03:04:26 PM 35.9694 -115.5644 North 249 287 12,000 -976 Descending Los Angeles Center
Wed 03:05:28 PM 36.0303 -115.5317 24° Northeast 254 292 11,000 -492 Descending Los Angeles Center
Wed 03:06:28 PM 36.0339 -115.4319 87° East 284 327 11,000  Level Los Angeles Center
Wed 03:06:30 PM 36.0336 -115.4294 98° East 283 326 11,000 -369 Level Los Angeles Center
Wed 03:07:33 PM 36.0278 -115.3308 94° East 289 333 10,600 -816 Descending Los Angeles Center
Wed 03:08:35 PM 36.0203 -115.2258 95° East 287 330 9,300 -1,238 Descending Los Angeles Center
Wed 03:08:36 PM 36.0192 -115.2242 129° Southeast 285 328 9,300 -1,065 Level Los Angeles Center
Wed 03:09:37 PM 36.0139 -115.1258 94° East 276 318 8,200 -985 Descending Los Angeles Center
Wed 03:09:43 PM 36.0136 -115.1197 93° East 271 312 8,200 -194 Level Los Angeles Center
Wed 03:10:39 PM 36.0075 -115.0431 96° East 244 281 8,000 -466 Descending Los Angeles Center
Wed 03:11:39 PM 36.0050 -114.9708 92° East 222 255 7,300 -677 Descending Los Angeles Center
Wed 03:11:41 PM 36.0036 -114.9625 102° East 222 255 7,300 -889 Level Los Angeles Center
Wed 03:12:33 PM 36.0050 -114.9019 88° East 215 247 6,500 -871 Descending Los Angeles Center
Wed 03:12:43 PM 36.0072 -114.8983 53° Northeast 212 244 6,400 -1,082 Descending Los Angeles Center
Wed 03:13:34 PM 36.0575 -114.9056 353° North 198 228 5,400 -1,048 Descending Los Angeles Center
Wed 03:13:46 PM 36.0614 -114.9158 295° West 203 234 5,300 -806 Descending Los Angeles Center
Wed 03:14:41 PM 36.0722 -114.9725 283° West 189 217 4,500 -871 Descending Los Angeles Center
Wed 03:14:48 PM 36.0736 -114.9761 295° West 181 208 4,400 -982 Descending Los Angeles Center
Wed 03:15:36 PM 36.0728 -115.0336 269° West 189 217 3,600 -968 Descending Los Angeles Center
Wed 03:15:50 PM 36.0739 -115.0458 276° West 188 216 3,400 -885 Descending Los Angeles Center
Wed 03:16:37 PM 36.0739 -115.0892 270° West 153 176 2,700 -871 Descending Los Angeles Center
Wed 03:16:52 PM 36.0736 -115.0983 268° West 152 175 2,500 -545 Descending Los Angeles Center
Wed 03:17:54 PM 36.0722 -115.1439 268° West 140 161 2,000 -484 Descending Los Angeles Center
Wed 03:19:00 PM 36.0667 -115.1500 294° West  Level FlightAware Approximate

Login

Don't have an account? Register now (free) for customized features, flight alerts, and more!